sensor_id;sensor_type;location;lat;lon;timestamp;pressure;altitude;pressure_sealevel;temperature;humidity
61900;BME280;47853;55.890;37.664;2024-03-08T00:02:13;99337.97;;;0.59;60.14
61900;BME280;47853;55.890;37.664;2024-03-08T00:04:39;99335.16;;;0.49;59.49
61900;BME280;47853;55.890;37.664;2024-03-08T00:07:04;99344.84;;;0.86;58.87
61900;BME280;47853;55.890;37.664;2024-03-08T00:09:30;99340.78;;;0.43;60.31
61900;BME280;47853;55.890;37.664;2024-03-08T00:11:55;99338.41;;;-0.13;61.42
61900;BME280;47853;55.890;37.664;2024-03-08T00:14:20;99340.16;;;0.39;60.61
61900;BME280;47853;55.890;37.664;2024-03-08T00:16:46;99311.94;;;0.70;59.14
61900;BME280;47853;55.890;37.664;2024-03-08T00:19:11;99321.31;;;0.21;58.92
61900;BME280;47853;55.890;37.664;2024-03-08T00:21:37;99321.81;;;0.01;61.54
61900;BME280;47853;55.890;37.664;2024-03-08T00:24:02;99322.81;;;-1.41;65.95
61900;BME280;47853;55.890;37.664;2024-03-08T00:26:27;99313.13;;;-0.53;65.37
61900;BME280;47853;55.890;37.664;2024-03-08T00:28:53;99311.94;;;0.32;63.29
61900;BME280;47853;55.890;37.664;2024-03-08T00:31:18;99296.28;;;0.32;61.06
61900;BME280;47853;55.890;37.664;2024-03-08T00:33:44;99307.34;;;0.74;59.53
61900;BME280;47853;55.890;37.664;2024-03-08T00:36:09;99296.66;;;0.38;60.16
61900;BME280;47853;55.890;37.664;2024-03-08T00:38:34;99297.81;;;0.08;62.30
61900;BME280;47853;55.890;37.664;2024-03-08T00:41:00;99292.47;;;0.62;62.83
61900;BME280;47853;55.890;37.664;2024-03-08T00:43:25;99291.72;;;0.85;60.36
61900;BME280;47853;55.890;37.664;2024-03-08T00:45:51;99289.47;;;0.16;60.79
61900;BME280;47853;55.890;37.664;2024-03-08T00:48:16;99285.72;;;0.33;62.38
61900;BME280;47853;55.890;37.664;2024-03-08T00:50:42;99274.19;;;-0.03;61.64
61900;BME280;47853;55.890;37.664;2024-03-08T00:53:07;99274.91;;;0.77;61.15
61900;BME280;47853;55.890;37.664;2024-03-08T00:55:33;99266.97;;;1.15;60.12
61900;BME280;47853;55.890;37.664;2024-03-08T00:57:58;99259.69;;;0.32;59.70
61900;BME280;47853;55.890;37.664;2024-03-08T01:00:42;99272.00;;;0.04;63.22
61900;BME280;47853;55.890;37.664;2024-03-08T01:03:07;99268.66;;;0.53;61.41
61900;BME280;47853;55.890;37.664;2024-03-08T01:05:33;99253.03;;;0.27;60.88
61900;BME280;47853;55.890;37.664;2024-03-08T01:07:58;99261.66;;;0.67;60.14
61900;BME280;47853;55.890;37.664;2024-03-08T01:10:24;99252.41;;;-0.70;64.71
61900;BME280;47853;55.890;37.664;2024-03-08T01:12:49;99267.63;;;0.56;62.57
61900;BME280;47853;55.890;37.664;2024-03-08T01:15:15;99265.75;;;0.45;61.81
61900;BME280;47853;55.890;37.664;2024-03-08T01:17:40;99252.38;;;0.37;61.64
61900;BME280;47853;55.890;37.664;2024-03-08T01:20:06;99269.28;;;-0.08;64.44
61900;BME280;47853;55.890;37.664;2024-03-08T01:22:32;99261.03;;;-0.15;63.95
61900;BME280;47853;55.890;37.664;2024-03-08T01:24:57;99250.78;;;0.60;62.60
61900;BME280;47853;55.890;37.664;2024-03-08T01:27:23;99250.06;;;-0.20;64.50
61900;BME280;47853;55.890;37.664;2024-03-08T01:29:48;99248.25;;;-0.32;65.81
61900;BME280;47853;55.890;37.664;2024-03-08T01:32:14;99256.53;;;0.52;63.50
61900;BME280;47853;55.890;37.664;2024-03-08T01:34:39;99258.19;;;0.79;60.73
61900;BME280;47853;55.890;37.664;2024-03-08T01:37:05;99241.88;;;0.63;60.81
61900;BME280;47853;55.890;37.664;2024-03-08T01:39:30;99253.84;;;0.15;62.96
61900;BME280;47853;55.890;37.664;2024-03-08T01:41:55;99250.06;;;0.32;62.06
61900;BME280;47853;55.890;37.664;2024-03-08T01:44:21;99249.31;;;-0.22;65.00
61900;BME280;47853;55.890;37.664;2024-03-08T01:46:47;99242.06;;;-0.44;65.58
61900;BME280;47853;55.890;37.664;2024-03-08T01:49:14;99253.91;;;-0.12;65.95
61900;BME280;47853;55.890;37.664;2024-03-08T01:51:40;99252.28;;;-0.81;67.46
61900;BME280;47853;55.890;37.664;2024-03-08T01:54:07;99235.06;;;-0.84;69.08
61900;BME280;47853;55.890;37.664;2024-03-08T01:56:33;99244.31;;;-0.65;67.79
61900;BME280;47853;55.890;37.664;2024-03-08T01:58:59;99237.66;;;-0.56;68.41
61900;BME280;47853;55.890;37.664;2024-03-08T02:01:25;99245.69;;;-0.19;65.78
61900;BME280;47853;55.890;37.664;2024-03-08T02:03:50;99243.97;;;-0.33;66.21
61900;BME280;47853;55.890;37.664;2024-03-08T02:06:16;99230.56;;;-0.54;66.90
61900;BME280;47853;55.890;37.664;2024-03-08T02:08:45;99244.97;;;-0.49;66.34
61900;BME280;47853;55.890;37.664;2024-03-08T02:11:11;99242.69;;;-0.81;67.13
61900;BME280;47853;55.890;37.664;2024-03-08T02:13:36;99221.25;;;-1.13;69.44
61900;BME280;47853;55.890;37.664;2024-03-08T02:16:02;99239.50;;;-1.70;74.33
61900;BME280;47853;55.890;37.664;2024-03-08T02:18:29;99237.53;;;-1.52;73.19
61900;BME280;47853;55.890;37.664;2024-03-08T02:20:55;99240.16;;;-1.10;74.08
61900;BME280;47853;55.890;37.664;2024-03-08T02:23:21;99239.16;;;-0.80;70.83
61900;BME280;47853;55.890;37.664;2024-03-08T02:25:47;99236.84;;;-0.84;70.20
61900;BME280;47853;55.890;37.664;2024-03-08T02:28:13;99233.63;;;-1.03;70.69
61900;BME280;47853;55.890;37.664;2024-03-08T02:30:39;99230.28;;;-1.47;71.62
61900;BME280;47853;55.890;37.664;2024-03-08T02:33:05;99221.78;;;-0.66;72.48
61900;BME280;47853;55.890;37.664;2024-03-08T02:35:31;99213.44;;;-0.59;69.51
61900;BME280;47853;55.890;37.664;2024-03-08T02:37:57;99237.47;;;-0.53;69.57
61900;BME280;47853;55.890;37.664;2024-03-08T02:40:22;99221.53;;;-0.76;69.58
61900;BME280;47853;55.890;37.664;2024-03-08T02:42:47;99216.84;;;-0.98;69.02
61900;BME280;47853;55.890;37.664;2024-03-08T02:45:13;99223.47;;;-1.93;74.70
61900;BME280;47853;55.890;37.664;2024-03-08T02:47:39;99211.94;;;-1.30;73.40
61900;BME280;47853;55.890;37.664;2024-03-08T02:50:05;99208.13;;;-1.39;74.63
61900;BME280;47853;55.890;37.664;2024-03-08T02:52:30;99196.44;;;-0.92;72.87
61900;BME280;47853;55.890;37.664;2024-03-08T02:54:56;99218.50;;;-0.70;71.59
61900;BME280;47853;55.890;37.664;2024-03-08T02:57:21;99209.34;;;0.17;66.99
61900;BME280;47853;55.890;37.664;2024-03-08T02:59:47;99201.34;;;-0.60;66.87
61900;BME280;47853;55.890;37.664;2024-03-08T03:02:12;99194.53;;;-1.59;72.46
61900;BME280;47853;55.890;37.664;2024-03-08T03:04:40;99192.16;;;-1.20;74.69
61900;BME280;47853;55.890;37.664;2024-03-08T03:07:05;99197.47;;;-0.94;73.21
61900;BME280;47853;55.890;37.664;2024-03-08T03:09:31;99201.88;;;-0.95;73.95
61900;BME280;47853;55.890;37.664;2024-03-08T03:11:56;99197.63;;;-1.96;76.66
61900;BME280;47853;55.890;37.664;2024-03-08T03:14:22;99184.34;;;-1.77;79.13
61900;BME280;47853;55.890;37.664;2024-03-08T03:16:47;99190.47;;;-1.63;78.16
61900;BME280;47853;55.890;37.664;2024-03-08T03:19:13;99180.78;;;-1.47;77.48
61900;BME280;47853;55.890;37.664;2024-03-08T03:21:38;99173.72;;;-1.44;77.48
61900;BME280;47853;55.890;37.664;2024-03-08T03:24:04;99171.38;;;-0.67;75.10
61900;BME280;47853;55.890;37.664;2024-03-08T03:26:30;99175.31;;;-1.56;77.07
61900;BME280;47853;55.890;37.664;2024-03-08T03:28:55;99181.09;;;-0.96;75.02
61900;BME280;47853;55.890;37.664;2024-03-08T03:31:23;99186.69;;;-0.75;75.11
61900;BME280;47853;55.890;37.664;2024-03-08T03:33:48;99173.13;;;-0.80;74.80
61900;BME280;47853;55.890;37.664;2024-03-08T03:36:14;99182.22;;;-1.70;80.70
61900;BME280;47853;55.890;37.664;2024-03-08T03:38:39;99153.66;;;-1.86;83.18
61900;BME280;47853;55.890;37.664;2024-03-08T03:41:04;99173.00;;;-1.90;85.05
61900;BME280;47853;55.890;37.664;2024-03-08T03:43:30;99156.97;;;-2.87;87.15
61900;BME280;47853;55.890;37.664;2024-03-08T03:45:55;99172.72;;;-2.14;89.02
61900;BME280;47853;55.890;37.664;2024-03-08T03:48:21;99177.34;;;-1.20;86.25
61900;BME280;47853;55.890;37.664;2024-03-08T03:50:46;99168.34;;;-0.74;80.84
61900;BME280;47853;55.890;37.664;2024-03-08T03:53:12;99161.72;;;-0.39;75.71
61900;BME280;47853;55.890;37.664;2024-03-08T03:55:37;99165.66;;;0.19;72.87
61900;BME280;47853;55.890;37.664;2024-03-08T03:58:06;99141.75;;;0.12;71.23
61900;BME280;47853;55.890;37.664;2024-03-08T04:00:31;99156.31;;;0.03;71.09
61900;BME280;47853;55.890;37.664;2024-03-08T04:02:56;99155.78;;;-0.15;71.46
61900;BME280;47853;55.890;37.664;2024-03-08T04:05:22;99146.56;;;-1.69;79.84
61900;BME280;47853;55.890;37.664;2024-03-08T04:07:47;99155.88;;;-0.96;79.80
61900;BME280;47853;55.890;37.664;2024-03-08T04:10:13;99153.69;;;-1.17;80.46
61900;BME280;47853;55.890;37.664;2024-03-08T04:12:38;99141.78;;;-1.48;82.21
61900;BME280;47853;55.890;37.664;2024-03-08T04:15:04;99150.66;;;-0.42;78.64
61900;BME280;47853;55.890;37.664;2024-03-08T04:17:30;99152.16;;;-0.79;77.25
61900;BME280;47853;55.890;37.664;2024-03-08T04:19:55;99143.22;;;-0.49;76.83
61900;BME280;47853;55.890;37.664;2024-03-08T04:22:20;99133.13;;;-0.53;75.82
61900;BME280;47853;55.890;37.664;2024-03-08T04:24:46;99143.53;;;-0.27;75.74
61900;BME280;47853;55.890;37.664;2024-03-08T04:27:13;99151.13;;;-0.63;77.44
61900;BME280;47853;55.890;37.664;2024-03-08T04:29:38;99145.31;;;0.11;73.88
61900;BME280;47853;55.890;37.664;2024-03-08T04:32:04;99134.75;;;0.25;72.63
61900;BME280;47853;55.890;37.664;2024-03-08T04:34:33;99131.94;;;-0.23;74.76
61900;BME280;47853;55.890;37.664;2024-03-08T04:36:59;99156.91;;;0.07;73.92
61900;BME280;47853;55.890;37.664;2024-03-08T04:39:25;99144.59;;;-0.04;74.93
61900;BME280;47853;55.890;37.664;2024-03-08T04:41:51;99142.06;;;-0.70;76.49
61900;BME280;47853;55.890;37.664;2024-03-08T04:44:16;99124.34;;;-0.52;80.67
61900;BME280;47853;55.890;37.664;2024-03-08T04:46:45;99134.13;;;-0.69;84.23
61900;BME280;47853;55.890;37.664;2024-03-08T04:49:10;99123.13;;;-1.00;83.86
61900;BME280;47853;55.890;37.664;2024-03-08T04:51:38;99126.03;;;-0.38;82.25
61900;BME280;47853;55.890;37.664;2024-03-08T04:54:04;99130.41;;;-0.39;80.07
61900;BME280;47853;55.890;37.664;2024-03-08T04:56:29;99129.41;;;-0.90;85.63
61900;BME280;47853;55.890;37.664;2024-03-08T04:58:55;99121.91;;;-0.81;86.21
61900;BME280;47853;55.890;37.664;2024-03-08T05:01:20;99119.34;;;-0.42;86.05
61900;BME280;47853;55.890;37.664;2024-03-08T05:03:46;99092.09;;;-0.51;84.13
61900;BME280;47853;55.890;37.664;2024-03-08T05:06:11;99102.41;;;-0.11;83.27
61900;BME280;47853;55.890;37.664;2024-03-08T05:08:36;99103.31;;;-0.90;85.07
61900;BME280;47853;55.890;37.664;2024-03-08T05:11:02;99098.47;;;-0.42;84.00
61900;BME280;47853;55.890;37.664;2024-03-08T05:13:27;99107.94;;;-0.28;82.39
61900;BME280;47853;55.890;37.664;2024-03-08T05:15:53;99087.28;;;-0.83;88.12
61900;BME280;47853;55.890;37.664;2024-03-08T05:18:18;99093.34;;;-0.44;86.89
61900;BME280;47853;55.890;37.664;2024-03-08T05:20:43;99100.13;;;-0.54;86.37
61900;BME280;47853;55.890;37.664;2024-03-08T05:23:09;99104.63;;;-0.31;85.88
61900;BME280;47853;55.890;37.664;2024-03-08T05:25:34;99091.25;;;-0.26;82.14
61900;BME280;47853;55.890;37.664;2024-03-08T05:28:00;99106.31;;;-1.09;87.54
61900;BME280;47853;55.890;37.664;2024-03-08T05:30:25;99089.69;;;-1.21;89.02
61900;BME280;47853;55.890;37.664;2024-03-08T05:32:51;99098.88;;;-0.23;88.32
61900;BME280;47853;55.890;37.664;2024-03-08T05:35:16;99099.38;;;-0.05;86.53
61900;BME280;47853;55.890;37.664;2024-03-08T05:37:42;99098.47;;;0.34;84.08
61900;BME280;47853;55.890;37.664;2024-03-08T05:40:08;99102.63;;;0.85;81.71
61900;BME280;47853;55.890;37.664;2024-03-08T05:42:34;99087.94;;;0.22;80.03
61900;BME280;47853;55.890;37.664;2024-03-08T05:44:59;99103.13;;;0.66;78.25
61900;BME280;47853;55.890;37.664;2024-03-08T05:47:28;99098.50;;;0.94;75.20
61900;BME280;47853;55.890;37.664;2024-03-08T05:49:53;99094.19;;;0.57;78.71
61900;BME280;47853;55.890;37.664;2024-03-08T05:52:19;99107.19;;;1.30;74.85
61900;BME280;47853;55.890;37.664;2024-03-08T05:54:44;99096.84;;;0.93;76.41
61900;BME280;47853;55.890;37.664;2024-03-08T05:57:10;99094.69;;;0.86;75.72
61900;BME280;47853;55.890;37.664;2024-03-08T05:59:35;99089.00;;;0.93;73.56
61900;BME280;47853;55.890;37.664;2024-03-08T06:02:01;99075.09;;;1.39;73.30
61900;BME280;47853;55.890;37.664;2024-03-08T06:04:26;99092.38;;;0.33;77.11
61900;BME280;47853;55.890;37.664;2024-03-08T06:06:51;99098.72;;;0.05;79.72
61900;BME280;47853;55.890;37.664;2024-03-08T06:09:17;99076.22;;;0.52;77.50
61900;BME280;47853;55.890;37.664;2024-03-08T06:11:42;99091.97;;;-0.89;84.58
61900;BME280;47853;55.890;37.664;2024-03-08T06:14:08;99094.91;;;-0.28;88.34
61900;BME280;47853;55.890;37.664;2024-03-08T06:16:33;99093.03;;;0.37;83.90
61900;BME280;47853;55.890;37.664;2024-03-08T06:18:59;99086.66;;;-0.22;83.48
61900;BME280;47853;55.890;37.664;2024-03-08T06:21:24;99086.78;;;0.26;83.60
61900;BME280;47853;55.890;37.664;2024-03-08T06:23:50;99107.75;;;0.86;79.44
61900;BME280;47853;55.890;37.664;2024-03-08T06:26:15;99105.22;;;0.36;79.33
61900;BME280;47853;55.890;37.664;2024-03-08T06:28:41;99080.41;;;0.79;78.93
61900;BME280;47853;55.890;37.664;2024-03-08T06:31:06;99090.69;;;0.45;79.04
61900;BME280;47853;55.890;37.664;2024-03-08T06:33:31;99083.03;;;0.79;77.53
61900;BME280;47853;55.890;37.664;2024-03-08T06:35:57;99075.00;;;1.05;76.16
61900;BME280;47853;55.890;37.664;2024-03-08T06:38:25;99078.00;;;1.00;75.63
61900;BME280;47853;55.890;37.664;2024-03-08T06:40:51;99094.06;;;0.83;77.97
61900;BME280;47853;55.890;37.664;2024-03-08T06:43:17;99093.44;;;0.68;77.39
61900;BME280;47853;55.890;37.664;2024-03-08T06:45:42;99079.81;;;1.11;76.54
61900;BME280;47853;55.890;37.664;2024-03-08T06:48:08;99071.78;;;0.41;79.12
61900;BME280;47853;55.890;37.664;2024-03-08T06:50:33;99060.44;;;0.54;80.69
61900;BME280;47853;55.890;37.664;2024-03-08T06:52:59;99080.97;;;0.47;81.84
61900;BME280;47853;55.890;37.664;2024-03-08T06:55:24;99087.22;;;1.40;78.01
61900;BME280;47853;55.890;37.664;2024-03-08T06:57:50;99082.75;;;2.11;73.22
61900;BME280;47853;55.890;37.664;2024-03-08T07:00:15;99090.09;;;2.28;70.03
61900;BME280;47853;55.890;37.664;2024-03-08T07:02:41;99089.59;;;2.35;67.65
61900;BME280;47853;55.890;37.664;2024-03-08T07:05:06;99069.03;;;2.30;68.74
61900;BME280;47853;55.890;37.664;2024-03-08T07:07:32;99089.84;;;0.93;72.07
61900;BME280;47853;55.890;37.664;2024-03-08T07:09:57;99093.94;;;1.09;71.85
61900;BME280;47853;55.890;37.664;2024-03-08T07:12:23;99093.81;;;1.57;72.73
61900;BME280;47853;55.890;37.664;2024-03-08T07:14:49;99089.22;;;2.51;71.01
61900;BME280;47853;55.890;37.664;2024-03-08T07:17:14;99085.47;;;2.09;69.63
61900;BME280;47853;55.890;37.664;2024-03-08T07:19:40;99095.69;;;1.44;72.49
61900;BME280;47853;55.890;37.664;2024-03-08T07:22:05;99094.75;;;1.45;75.46
61900;BME280;47853;55.890;37.664;2024-03-08T07:24:31;99095.00;;;1.76;73.33
61900;BME280;47853;55.890;37.664;2024-03-08T07:26:56;99093.59;;;2.61;68.96
61900;BME280;47853;55.890;37.664;2024-03-08T07:29:22;99086.91;;;2.13;67.68
61900;BME280;47853;55.890;37.664;2024-03-08T07:31:47;99093.81;;;2.26;69.38
61900;BME280;47853;55.890;37.664;2024-03-08T07:34:13;99085.44;;;2.76;65.37
61900;BME280;47853;55.890;37.664;2024-03-08T07:36:38;99091.84;;;3.58;63.25
61900;BME280;47853;55.890;37.664;2024-03-08T07:39:04;99082.06;;;3.39;62.31
61900;BME280;47853;55.890;37.664;2024-03-08T07:41:29;99078.75;;;3.26;63.26
61900;BME280;47853;55.890;37.664;2024-03-08T07:43:57;99062.22;;;3.77;61.29
61900;BME280;47853;55.890;37.664;2024-03-08T07:46:22;99073.34;;;2.64;63.47
61900;BME280;47853;55.890;37.664;2024-03-08T07:48:47;99075.13;;;2.08;67.52
61900;BME280;47853;55.890;37.664;2024-03-08T07:51:16;99092.94;;;1.45;76.25
61900;BME280;47853;55.890;37.664;2024-03-08T07:53:41;99064.41;;;1.42;71.92
61900;BME280;47853;55.890;37.664;2024-03-08T07:56:10;99094.16;;;2.21;71.45
61900;BME280;47853;55.890;37.664;2024-03-08T07:58:38;99075.31;;;1.13;80.43
61900;BME280;47853;55.890;37.664;2024-03-08T08:01:04;99056.91;;;1.49;81.19
61900;BME280;47853;55.890;37.664;2024-03-08T08:03:29;99072.75;;;2.60;74.72
61900;BME280;47853;55.890;37.664;2024-03-08T08:05:54;99067.97;;;3.19;69.10
61900;BME280;47853;55.890;37.664;2024-03-08T08:08:20;99064.38;;;3.72;64.45
61900;BME280;47853;55.890;37.664;2024-03-08T08:10:45;99081.53;;;3.45;63.68
61900;BME280;47853;55.890;37.664;2024-03-08T08:13:11;99064.88;;;3.56;64.33
61900;BME280;47853;55.890;37.664;2024-03-08T08:15:36;99073.63;;;3.67;63.59
61900;BME280;47853;55.890;37.664;2024-03-08T08:18:02;99070.19;;;3.02;67.45
61900;BME280;47853;55.890;37.664;2024-03-08T08:20:27;99073.38;;;3.48;65.69
61900;BME280;47853;55.890;37.664;2024-03-08T08:22:53;99068.06;;;4.52;61.04
61900;BME280;47853;55.890;37.664;2024-03-08T08:25:18;99074.81;;;4.34;60.46
61900;BME280;47853;55.890;37.664;2024-03-08T08:27:44;99061.78;;;3.51;61.20
61900;BME280;47853;55.890;37.664;2024-03-08T08:30:09;99077.38;;;3.74;62.27
61900;BME280;47853;55.890;37.664;2024-03-08T08:32:35;99087.56;;;4.49;60.60
61900;BME280;47853;55.890;37.664;2024-03-08T08:35:01;99087.56;;;4.49;58.78
61900;BME280;47853;55.890;37.664;2024-03-08T08:37:26;99081.81;;;4.14;60.65
61900;BME280;47853;55.890;37.664;2024-03-08T08:39:52;99086.63;;;3.68;62.57
61900;BME280;47853;55.890;37.664;2024-03-08T08:42:17;99065.78;;;4.17;62.60
61900;BME280;47853;55.890;37.664;2024-03-08T08:44:43;99070.28;;;4.86;57.77
61900;BME280;47853;55.890;37.664;2024-03-08T08:47:08;99075.03;;;4.92;57.89
61900;BME280;47853;55.890;37.664;2024-03-08T08:49:33;99064.59;;;3.59;61.06
61900;BME280;47853;55.890;37.664;2024-03-08T08:51:59;99074.25;;;2.18;72.37
61900;BME280;47853;55.890;37.664;2024-03-08T08:54:27;99078.56;;;2.31;77.55
61900;BME280;47853;55.890;37.664;2024-03-08T08:56:53;99062.63;;;3.52;71.09
61900;BME280;47853;55.890;37.664;2024-03-08T08:59:18;99052.03;;;3.11;68.85
61900;BME280;47853;55.890;37.664;2024-03-08T09:01:46;99051.34;;;3.92;67.77
61900;BME280;47853;55.890;37.664;2024-03-08T09:04:12;99050.03;;;3.76;66.12
61900;BME280;47853;55.890;37.664;2024-03-08T09:06:38;99042.13;;;4.17;63.73
61900;BME280;47853;55.890;37.664;2024-03-08T09:09:03;99042.31;;;5.04;60.99
61900;BME280;47853;55.890;37.664;2024-03-08T09:11:28;99042.44;;;4.44;60.91
61900;BME280;47853;55.890;37.664;2024-03-08T09:13:54;99047.25;;;5.27;59.12
61900;BME280;47853;55.890;37.664;2024-03-08T09:16:19;99030.34;;;6.33;55.38
61900;BME280;47853;55.890;37.664;2024-03-08T09:18:45;99042.69;;;4.31;60.19
61900;BME280;47853;55.890;37.664;2024-03-08T09:21:10;99039.81;;;5.03;58.24
61900;BME280;47853;55.890;37.664;2024-03-08T09:23:36;99043.84;;;4.77;60.32
61900;BME280;47853;55.890;37.664;2024-03-08T09:26:02;99051.72;;;4.48;61.99
61900;BME280;47853;55.890;37.664;2024-03-08T09:28:27;99054.91;;;5.11;58.99
61900;BME280;47853;55.890;37.664;2024-03-08T09:30:52;99049.31;;;5.43;56.93
61900;BME280;47853;55.890;37.664;2024-03-08T09:33:18;99042.47;;;4.73;59.15
61900;BME280;47853;55.890;37.664;2024-03-08T09:35:43;99051.59;;;5.18;57.98
61900;BME280;47853;55.890;37.664;2024-03-08T09:38:09;99052.56;;;3.88;60.55
61900;BME280;47853;55.890;37.664;2024-03-08T09:40:34;99063.59;;;4.23;65.13
61900;BME280;47853;55.890;37.664;2024-03-08T09:43:00;99048.00;;;4.50;62.68
61900;BME280;47853;55.890;37.664;2024-03-08T09:45:25;99060.75;;;4.75;60.83
61900;BME280;47853;55.890;37.664;2024-03-08T09:47:51;99054.25;;;2.94;72.80
61900;BME280;47853;55.890;37.664;2024-03-08T09:50:17;99044.38;;;4.32;65.33
61900;BME280;47853;55.890;37.664;2024-03-08T09:52:43;99049.16;;;4.17;68.32
61900;BME280;47853;55.890;37.664;2024-03-08T09:55:09;99044.66;;;4.58;64.09
61900;BME280;47853;55.890;37.664;2024-03-08T09:57:36;99050.22;;;4.65;63.24
61900;BME280;47853;55.890;37.664;2024-03-08T10:00:03;99038.88;;;4.64;62.56
61900;BME280;47853;55.890;37.664;2024-03-08T10:02:28;99035.50;;;4.13;65.27
61900;BME280;47853;55.890;37.664;2024-03-08T10:04:54;99048.16;;;4.69;63.14
61900;BME280;47853;55.890;37.664;2024-03-08T10:07:19;99039.34;;;5.27;60.95
61900;BME280;47853;55.890;37.664;2024-03-08T10:09:45;99038.03;;;5.13;59.88
61900;BME280;47853;55.890;37.664;2024-03-08T10:12:10;99048.63;;;5.41;58.97
61900;BME280;47853;55.890;37.664;2024-03-08T10:14:38;99047.28;;;5.17;59.02
61900;BME280;47853;55.890;37.664;2024-03-08T10:17:04;99040.88;;;5.30;59.66
61900;BME280;47853;55.890;37.664;2024-03-08T10:19:30;99032.84;;;3.72;64.58
61900;BME280;47853;55.890;37.664;2024-03-08T10:21:55;99045.66;;;3.97;72.24
61900;BME280;47853;55.890;37.664;2024-03-08T10:24:21;99046.00;;;4.13;68.18
61900;BME280;47853;55.890;37.664;2024-03-08T10:26:47;99055.75;;;5.11;63.30
61900;BME280;47853;55.890;37.664;2024-03-08T10:29:13;99042.44;;;5.22;61.93
61900;BME280;47853;55.890;37.664;2024-03-08T10:31:39;99043.59;;;5.58;60.18
61900;BME280;47853;55.890;37.664;2024-03-08T10:34:04;99044.91;;;6.09;57.12
61900;BME280;47853;55.890;37.664;2024-03-08T10:36:30;99050.91;;;6.30;56.08
61900;BME280;47853;55.890;37.664;2024-03-08T10:38:59;99039.84;;;5.50;57.22
61900;BME280;47853;55.890;37.664;2024-03-08T10:41:30;99040.53;;;4.75;61.79
61900;BME280;47853;55.890;37.664;2024-03-08T10:44:20;99036.66;;;5.57;58.82
61900;BME280;47853;55.890;37.664;2024-03-08T10:47:15;99044.00;;;5.53;58.29
61900;BME280;47853;55.890;37.664;2024-03-08T10:49:55;99040.59;;;5.80;56.28
61900;BME280;47853;55.890;37.664;2024-03-08T10:52:24;99044.25;;;5.98;56.30
61900;BME280;47853;55.890;37.664;2024-03-08T10:54:51;99023.81;;;5.72;56.37
61900;BME280;47853;55.890;37.664;2024-03-08T10:57:18;99044.56;;;4.70;61.70
61900;BME280;47853;55.890;37.664;2024-03-08T10:59:45;99036.66;;;4.99;61.93
61900;BME280;47853;55.890;37.664;2024-03-08T11:02:12;99041.34;;;5.15;62.25
61900;BME280;47853;55.890;37.664;2024-03-08T11:04:38;99034.16;;;4.78;60.66
61900;BME280;47853;55.890;37.664;2024-03-08T11:07:04;99025.06;;;5.40;59.59
61900;BME280;47853;55.890;37.664;2024-03-08T11:09:31;99016.47;;;5.75;59.52
61900;BME280;47853;55.890;37.664;2024-03-08T11:12:19;99028.63;;;6.60;56.29
61900;BME280;47853;55.890;37.664;2024-03-08T11:14:46;99013.28;;;6.09;55.72
61900;BME280;47853;55.890;37.664;2024-03-08T11:17:13;99025.25;;;6.04;56.69
61900;BME280;47853;55.890;37.664;2024-03-08T11:19:46;99007.44;;;6.70;52.47
61900;BME280;47853;55.890;37.664;2024-03-08T11:22:20;99016.09;;;5.98;55.03
61900;BME280;47853;55.890;37.664;2024-03-08T11:24:46;99015.25;;;5.98;55.26
61900;BME280;47853;55.890;37.664;2024-03-08T11:27:12;99013.91;;;6.39;54.20
61900;BME280;47853;55.890;37.664;2024-03-08T11:29:43;98999.38;;;6.53;53.75
61900;BME280;47853;55.890;37.664;2024-03-08T11:32:15;98996.50;;;6.29;53.27
61900;BME280;47853;55.890;37.664;2024-03-08T11:34:46;99025.19;;;4.71;58.87
61900;BME280;47853;55.890;37.664;2024-03-08T11:37:16;99024.84;;;4.25;66.60
61900;BME280;47853;55.890;37.664;2024-03-08T11:39:54;99021.34;;;5.70;61.57
61900;BME280;47853;55.890;37.664;2024-03-08T11:42:20;99023.09;;;4.64;63.57
61900;BME280;47853;55.890;37.664;2024-03-08T11:44:46;99034.13;;;5.65;59.90
61900;BME280;47853;55.890;37.664;2024-03-08T11:47:12;99018.75;;;5.60;57.05
61900;BME280;47853;55.890;37.664;2024-03-08T11:49:38;99023.81;;;5.34;59.36
61900;BME280;47853;55.890;37.664;2024-03-08T11:52:04;99023.75;;;6.01;57.38
61900;BME280;47853;55.890;37.664;2024-03-08T11:54:29;99022.00;;;6.74;54.62
61900;BME280;47853;55.890;37.664;2024-03-08T11:56:56;99024.25;;;6.87;52.81
61900;BME280;47853;55.890;37.664;2024-03-08T11:59:22;99025.31;;;6.40;53.34
61900;BME280;47853;55.890;37.664;2024-03-08T12:02:02;99008.88;;;6.46;53.80
61900;BME280;47853;55.890;37.664;2024-03-08T12:04:27;99025.50;;;6.83;52.91
61900;BME280;47853;55.890;37.664;2024-03-08T12:06:53;99028.31;;;5.61;54.27
61900;BME280;47853;55.890;37.664;2024-03-08T12:12:15;99031.47;;;5.75;56.93
61900;BME280;47853;55.890;37.664;2024-03-08T12:14:43;99000.47;;;6.15;54.65
61900;BME280;47853;55.890;37.664;2024-03-08T12:17:09;98993.38;;;5.21;57.31
61900;BME280;47853;55.890;37.664;2024-03-08T12:19:34;99025.44;;;4.87;59.17
61900;BME280;47853;55.890;37.664;2024-03-08T12:22:07;99033.28;;;6.48;57.22
61900;BME280;47853;55.890;37.664;2024-03-08T12:24:33;99016.53;;;6.76;52.91
61900;BME280;47853;55.890;37.664;2024-03-08T12:26:59;99005.84;;;6.23;51.83
61900;BME280;47853;55.890;37.664;2024-03-08T12:29:25;99010.97;;;5.21;57.12
61900;BME280;47853;55.890;37.664;2024-03-08T12:31:53;99008.75;;;3.98;64.78
61900;BME280;47853;55.890;37.664;2024-03-08T12:34:18;99020.38;;;6.27;58.64
61900;BME280;47853;55.890;37.664;2024-03-08T12:36:45;99032.66;;;7.96;51.42
61900;BME280;47853;55.890;37.664;2024-03-08T12:39:10;99028.84;;;8.50;46.65
61900;BME280;47853;55.890;37.664;2024-03-08T12:41:39;99024.06;;;9.04;45.28
61900;BME280;47853;55.890;37.664;2024-03-08T12:44:05;99026.56;;;8.97;45.02
61900;BME280;47853;55.890;37.664;2024-03-08T12:46:30;99036.22;;;7.87;46.15
61900;BME280;47853;55.890;37.664;2024-03-08T12:48:55;99029.91;;;7.72;47.00
61900;BME280;47853;55.890;37.664;2024-03-08T12:51:21;99035.97;;;7.64;45.96
61900;BME280;47853;55.890;37.664;2024-03-08T12:53:46;99032.59;;;7.53;46.45
61900;BME280;47853;55.890;37.664;2024-03-08T12:56:31;99033.00;;;7.14;47.78